Latest Weather Observations for Gladstone

IDQ60801

Issued at 10:02 pm EST Sunday 28 May 2017 (issued every 30 minutes, with the page automatically refreshed every 10 minutes)

About weather observations | Map of weather stations | Latest weather observations for QLD | Other Formats
Station Details ID: 039123 Name: GLADSTONE RADAR Lat: -23.86 Lon: 151.26 Height: 74.5 m
Data from the previous 72 hours. | See also: Recent months at Gladstone
Date/Time
EST
Temp
°C
App
Temp
°C
Dew
Point
°C
Rel
Hum
%
Delta-T
°C
Wind Press
QNH
hPa
Press
MSL
hPa
Rain since
9am
mm
Dir  Spd
km/h
Gust
km/h
Spd
kts
Gust
kts
28/10:00pm 19.9 21.6 18.4 91 0.9 NNE 7 9 4 5 1019.1 1018.9 0.0
28/09:30pm 20.1 21.8 18.6 91 0.9 NNE 7 11 4 6 1019.0 1018.8 0.0
28/09:00pm 20.2 21.6 18.7 91 0.9 NNE 9 13 5 7 1019.1 1018.9 0.0
28/08:30pm 20.1 21.4 18.4 90 1.1 NNE 9 11 5 6 1019.0 1018.8 0.0
28/08:00pm 20.3 21.5 18.2 88 1.3 NNE 9 11 5 6 1018.8 1018.6 0.0
28/07:30pm 20.3 21.6 18.4 89 1.2 NNE 9 13 5 7 1018.6 1018.4 0.0
28/07:00pm 20.3 21.8 18.1 87 1.4 NNE 7 11 4 6 1018.3 1018.1 0.0
28/06:30pm 20.5 21.6 17.9 85 1.6 NNE 9 13 5 7 1017.9 1017.7 0.0
28/06:00pm 20.7 21.7 17.7 83 1.9 NNE 9 13 5 7 1017.5 1017.3 0.0
28/05:30pm 21.1 21.8 17.1 78 2.5 NNE 9 15 5 8 1017.2 1017.0 0.0
28/05:00pm 21.9 22.6 17.1 74 2.9 NNE 9 15 5 8 1017.0 1016.8 0.0
28/04:30pm 23.1 23.2 16.6 67 4.0 NNE 11 17 6 9 1016.7 1016.5 0.0
28/04:00pm 24.0 24.6 16.8 64 4.4 NE 9 15 5 8 1016.6 1016.4 0.0
28/03:30pm 24.8 24.9 16.5 60 5.1 NE 11 17 6 9 1016.4 1016.2 0.0
28/03:00pm 25.3 24.9 16.2 57 5.6 NE 13 20 7 11 1016.3 1016.1 0.0
28/02:30pm 25.7 25.0 15.4 53 6.3 NE 13 19 7 10 1016.5 1016.3 0.0
28/02:00pm 26.1 26.2 16.6 55 5.9 NE 11 17 6 9 1016.7 1016.5 0.0
28/01:30pm 25.9 25.6 16.5 56 5.8 ENE 13 20 7 11 1017.0 1016.8 0.0
28/01:00pm 25.9 25.4 17.0 58 5.5 ENE 15 20 8 11 1017.2 1017.0 0.0
28/12:30pm 25.9 25.7 16.7 57 5.7 ENE 13 17 7 9 1017.6 1017.4 0.0
28/12:00pm 25.9 25.6 16.5 56 5.8 ENE 13 20 7 11 1018.0 1017.8 0.0
28/11:30am 26.3 27.2 17.6 58 5.5 ENE 9 17 5 9 1018.4 1018.2 0.0
28/11:00am 25.9 26.0 17.5 59 5.3 ENE 13 17 7 9 1018.8 1018.6 0.0
28/10:30am 25.3 25.6 17.0 60 5.2 ENE 11 15 6 8 1018.9 1018.7 0.0
28/10:00am 24.1 24.6 17.4 66 4.2 ENE 11 17 6 9 1019.0 1018.8 0.0
28/09:30am 22.5 23.3 17.4 73 3.2 SSE 9 11 5 6 1019.2 1019.0 0.0
28/09:00am 22.4 24.0 18.2 77 2.6 S 7 11 4 6 1019.4 1019.1 0.0
28/08:30am 21.2 22.4 17.4 79 2.3 S 7 13 4 7 1019.1 1018.9 0.0
28/08:00am 20.3 21.6 17.5 84 1.7 S 7 13 4 7 1018.9 1018.7 0.0
28/07:30am 19.1 19.4 17.1 88 1.2 S 11 17 6 9 1018.8 1018.6 0.0
28/07:00am 18.6 18.8 16.8 89 1.1 S 11 15 6 8 1018.7 1018.5 0.0
28/06:30am 18.3 18.2 17.0 92 0.8 S 13 15 7 8 1018.5 1018.3 0.0
28/06:00am 16.9 17.0 15.4 91 0.9 S 9 13 5 7 1018.5 1018.3 0.0
28/05:30am 18.5 18.3 16.8 90 1.0 S 13 15 7 8 1018.1 1017.9 0.0
28/05:00am 18.4 18.2 16.7 90 1.0 S 13 17 7 9 1017.8 1017.6 0.0
28/04:30am 18.7 18.2 17.0 90 1.0 S 15 19 8 10 1017.9 1017.7 0.0
28/04:00am 19.1 19.6 17.4 90 1.0 SSE 11 15 6 8 1017.9 1017.7 0.0
28/03:30am 19.1 19.1 17.2 89 1.2 SSE 13 15 7 8 1018.1 1017.9 0.0
28/03:00am 18.6 18.9 16.9 90 1.0 SSE 11 15 6 8 1018.3 1018.1 0.0
28/02:30am 18.8 18.7 16.9 89 1.1 SSE 13 17 7 9 1018.5 1018.3 0.0
28/02:00am 18.8 18.7 16.9 89 1.1 SSE 13 15 7 8 1018.7 1018.5 0.0
28/01:30am 18.9 18.5 17.2 90 1.0 SSE 15 19 8 10 1018.9 1018.7 0.0
28/01:00am 18.9 18.4 17.0 89 1.1 SE 15 19 8 10 1019.0 1018.8 0.0
28/12:30am 19.0 18.5 17.0 88 1.2 SE 15 19 8 10 1019.2 1019.0 0.0
28/12:00am 19.0 18.5 16.8 87 1.3 SE 15 20 8 11 1019.4 1019.1 0.0
 
Date/Time
EST
Temp
°C
App
Temp
°C
Dew
Point
°C
Rel
Hum
%
Delta-T
°C
Wind Press
QNH
hPa
Press
MSL
hPa
Rain since
9am
mm
Dir  Spd
km/h
Gust
km/h
Spd
kts
Gust
kts
27/11:30pm 19.2 18.7 16.8 86 1.5 SSE 15 17 8 9 1019.5 1019.2 0.0
27/11:00pm 19.2 18.4 16.2 83 1.8 SSE 15 19 8 10 1019.6 1019.3 0.0
27/10:30pm 19.5 18.8 16.3 82 1.9 SE 15 19 8 10 1019.8 1019.5 0.0
27/10:00pm 19.6 18.9 16.4 82 1.9 SE 15 20 8 11 1019.9 1019.6 0.0
27/09:30pm 19.7 19.1 16.7 83 1.8 SE 15 19 8 10 1019.9 1019.6 0.0
27/09:00pm 19.6 19.8 16.8 84 1.7 SE 11 15 6 8 1020.0 1019.7 0.0
27/08:30pm 20.3 20.7 17.3 83 1.8 ESE 11 19 6 10 1019.9 1019.6 0.0
27/08:00pm 20.5 20.1 17.1 81 2.1 E 15 20 8 11 1019.7 1019.4 0.0
27/07:30pm 20.7 20.3 17.1 80 2.2 E 15 20 8 11 1019.5 1019.2 0.0
27/07:00pm 20.8 19.6 17.0 79 2.3 E 19 24 10 13 1019.1 1018.9 0.0
27/06:30pm 20.7 19.7 16.7 78 2.4 ENE 17 20 9 11 1018.8 1018.6 0.0
27/06:00pm 20.8 20.2 16.6 77 2.5 E 15 20 8 11 1018.5 1018.3 0.0
27/05:30pm 21.0 20.4 16.6 76 2.7 ENE 15 20 8 11 1018.2 1018.0 0.0
27/05:00pm 21.6 20.8 16.1 71 3.3 ENE 15 20 8 11 1018.0 1017.8 0.0
27/04:30pm 22.7 21.6 16.3 67 3.9 ENE 17 20 9 11 1017.8 1017.6 0.0
27/04:00pm 23.3 22.3 16.6 66 4.1 ENE 17 24 9 13 1017.9 1017.7 0.0
27/03:30pm 24.0 22.6 16.5 63 4.6 ENE 19 26 10 14 1017.8 1017.6 0.0
27/03:00pm 24.4 23.4 16.6 61 4.8 NE 17 24 9 13 1017.7 1017.5 0.0
27/02:30pm 25.0 24.3 16.4 59 5.3 ENE 15 20 8 11 1017.8 1017.6 0.0
27/02:00pm 25.2 23.9 15.8 56 5.7 ENE 17 24 9 13 1017.7 1017.5 0.0
27/01:30pm 25.5 24.2 15.8 55 5.9 ENE 17 24 9 13 1018.0 1017.8 0.0
27/01:00pm 25.6 24.4 16.2 56 5.8 ENE 17 24 9 13 1018.3 1018.1 0.0
27/12:30pm 25.4 23.9 16.3 57 5.6 ENE 19 24 10 13 1018.7 1018.5 0.0
27/12:00pm 26.1 25.0 16.4 55 6.0 ENE 17 24 9 13 1019.4 1019.1 0.0
27/11:30am 25.5 24.5 16.6 58 5.5 ESE 17 22 9 12 1019.7 1019.4 0.0
27/11:00am 25.2 24.7 16.9 60 5.1 ESE 15 24 8 13 1020.2 1019.9 0.0
27/10:30am 24.9 24.0 16.9 61 5.0 ESE 17 26 9 14 1020.7 1020.4 0.0
27/10:00am 23.5 23.1 16.1 63 4.5 SE 13 20 7 11 1021.1 1020.8 0.0
27/09:30am 22.8 21.7 16.4 67 3.9 SE 17 24 9 13 1021.0 1020.7 0.0
27/09:00am 22.2 21.7 16.0 68 3.7 SE 13 20 7 11 1020.8 1020.5 0.0
27/08:30am 21.4 22.0 16.8 75 2.8 SE 9 20 5 11 1020.6 1020.3 0.0
27/08:00am 19.7 19.5 15.8 78 2.3 SSE 11 17 6 9 1020.4 1020.1 0.0
27/07:30am 19.5 18.9 15.6 78 2.3 SSE 13 19 7 10 1019.9 1019.6 0.0
27/07:00am 18.8 17.7 15.3 80 2.1 SSE 15 22 8 12 1019.7 1019.4 0.0
27/06:30am 18.7 17.6 15.4 81 1.9 SSE 15 24 8 13 1019.4 1019.1 0.0
27/06:00am 18.5 17.3 15.0 80 2.0 SSE 15 20 8 11 1018.9 1018.7 0.0
27/05:30am 19.3 17.9 15.6 79 2.2 SE 17 20 9 11 1018.6 1018.4 0.0
27/05:00am 19.1 18.0 15.2 78 2.3 SSE 15 20 8 11 1018.5 1018.3 0.0
27/04:30am 19.1 18.0 15.2 78 2.3 SE 15 24 8 13 1018.5 1018.3 0.0
27/04:00am 19.2 17.9 14.9 76 2.5 SE 15 20 8 11 1018.6 1018.4 0.0
27/03:30am 19.2 17.6 14.9 76 2.5 SSE 17 22 9 12 1018.7 1018.5 0.0
27/03:00am 19.5 18.3 15.0 75 2.6 SSE 15 20 8 11 1018.7 1018.5 0.0
27/02:30am 19.4 17.9 15.3 77 2.4 SSE 17 22 9 12 1019.0 1018.8 0.0
27/02:00am 19.0 18.4 15.7 81 2.0 SSE 13 19 7 10 1019.1 1018.9 0.0
27/01:30am 19.0 18.4 15.7 81 2.0 SSE 13 20 7 11 1019.4 1019.1 0.0
27/01:00am 18.7 17.8 15.8 83 1.7 SE 15 22 8 12 1019.7 1019.4 0.0
27/12:30am 18.9 17.7 16.0 83 1.7 SSE 17 24 9 13 1019.6 1019.3 0.0
27/12:00am 19.6 18.4 16.1 80 2.1 SSE 17 26 9 14 1019.7 1019.4 0.0
 
Date/Time
EST
Temp
°C
App
Temp
°C
Dew
Point
°C
Rel
Hum
%
Delta-T
°C
Wind Press
QNH
hPa
Press
MSL
hPa
Rain since
9am
mm
Dir  Spd
km/h
Gust
km/h
Spd
kts
Gust
kts
26/11:30pm 19.9 19.2 16.3 80 2.2 SSE 15 20 8 11 1019.8 1019.5 0.0
26/11:00pm 19.9 19.2 16.3 80 2.2 SSE 15 22 8 12 1019.9 1019.6 0.0
26/10:30pm 19.9 19.5 16.2 79 2.2 SSE 13 17 7 9 1020.0 1019.7 0.0
26/10:00pm 19.9 19.7 16.7 82 1.9 SE 13 17 7 9 1020.0 1019.7 0.0
26/09:30pm 20.1 20.1 17.1 83 1.8 SE 13 17 7 9 1020.0 1019.7 0.0
26/09:00pm 20.5 20.3 17.5 83 1.8 ESE 15 19 8 10 1020.0 1019.7 0.0
26/08:30pm 20.8 19.7 17.2 80 2.2 E 19 26 10 14 1019.7 1019.4 0.0
26/08:00pm 20.8 20.0 17.2 80 2.2 E 17 22 9 12 1019.5 1019.2 0.0
26/07:30pm 20.9 20.1 17.1 79 2.3 E 17 24 9 13 1019.4 1019.1 0.0
26/07:00pm 20.9 20.1 17.1 79 2.3 E 17 20 9 11 1018.9 1018.7 0.0
26/06:30pm 20.8 20.3 16.8 78 2.4 E 15 20 8 11 1018.5 1018.3 0.0
26/06:00pm 21.0 20.1 16.8 77 2.6 E 17 22 9 12 1018.0 1017.8 0.0
26/05:30pm 21.1 20.1 16.7 76 2.7 ENE 17 24 9 13 1017.6 1017.4 0.0
26/05:00pm 21.7 20.3 16.6 73 3.1 ENE 19 26 10 14 1017.4 1017.2 0.0
26/04:30pm 22.7 21.2 16.7 69 3.7 ENE 20 30 11 16 1017.2 1017.0 0.0
26/04:00pm 23.3 21.3 16.4 65 4.2 ENE 22 32 12 17 1017.1 1016.9 0.0
26/03:30pm 24.1 21.9 15.9 60 5.0 ENE 22 32 12 17 1017.1 1016.9 0.0
26/03:00pm 24.7 22.7 15.6 57 5.5 ENE 20 30 11 16 1017.0 1016.8 0.0
26/02:30pm 25.0 22.9 15.3 55 5.9 ENE 20 33 11 18 1017.0 1016.8 0.0
26/02:00pm 25.1 22.2 15.1 53 6.0 ENE 24 32 13 17 1017.1 1016.9 0.0
26/01:30pm 25.7 23.0 14.5 50 6.7 ENE 22 30 12 16 1017.3 1017.1 0.0
26/01:00pm 26.0 23.4 13.2 45 7.5 ENE 19 28 10 15 1017.8 1017.6 0.0
26/12:30pm 25.8 23.6 14.9 51 6.6 E 20 28 11 15 1018.2 1018.0 0.0
26/12:00pm 25.3 23.2 14.7 51 6.3 E 19 28 10 15 1018.8 1018.6 0.0
26/11:30am 24.8 22.7 15.1 54 5.8 ESE 20 30 11 16 1019.2 1019.0 0.0
26/11:00am 24.2 22.0 14.9 56 5.6 ESE 20 32 11 17 1019.7 1019.4 0.0
26/10:30am 24.5 23.5 16.5 61 4.9 ESE 17 28 9 15 1019.9 1019.6 0.0
26/10:00am 23.9 23.8 16.9 65 4.3 SE 13 24 7 13 1020.2 1019.9 0.0
26/09:30am 22.2 21.9 16.5 70 3.5 SSE 13 19 7 10 1020.4 1020.1 0.0
26/09:00am 21.6 21.4 16.6 73 3.0 SE 13 22 7 12 1020.4 1020.1 0.0
26/08:30am 20.0 20.8 15.8 77 2.5 SSW 6 13 3 7 1020.3 1020.0 0.0
26/08:00am 18.6 19.0 15.3 81 1.9 SSW 7 9 4 5 1020.1 1019.8 0.0
26/07:30am 17.6 17.3 14.5 82 1.8 SSW 9 11 5 6 1019.8 1019.5 0.0
26/07:00am 17.3 16.5 14.0 81 1.9 SSW 11 17 6 9 1019.5 1019.2 0.0
26/06:30am 17.3 15.8 14.2 82 1.8 SSW 15 20 8 11 1018.9 1018.7 0.0
26/06:00am 17.6 15.7 14.3 81 1.9 SSW 17 20 9 11 1018.3 1018.1 0.0
26/05:30am 17.9 17.1 15.0 83 1.7 SSW 13 20 7 11 1018.2 1018.0 0.0
26/05:00am 17.8 16.2 15.1 84 1.6 S 17 20 9 11 1017.9 1017.7 0.0
26/04:30am 17.9 16.8 15.3 85 1.5 S 15 24 8 13 1017.7 1017.5 0.0
26/04:00am 18.0 16.9 15.4 85 1.5 S 15 19 8 10 1017.7 1017.5 0.0
26/03:30am 18.7 17.7 15.6 82 1.8 S 15 20 8 11 1017.9 1017.7 0.0
26/03:00am 18.7 17.2 15.2 80 2.1 SSE 17 22 9 12 1018.0 1017.8 0.0
26/02:30am 19.0 17.4 15.1 78 2.3 SSE 17 20 9 11 1018.3 1018.1 0.0
26/02:00am 19.1 17.6 14.1 73 2.9 SSE 15 20 8 11 1018.5 1018.3 0.0
26/01:30am 19.4 17.3 12.4 64 3.9 SSE 15 20 8 11 1018.6 1018.4 0.0
26/01:00am 19.6 16.8 11.4 59 4.5 SSE 17 22 9 12 1018.8 1018.6 0.0
26/12:30am 19.4 17.9 13.1 67 3.6 SSE 13 20 7 11 1019.0 1018.8 0.0
26/12:00am 19.6 18.9 13.1 66 3.7 SSE 9 11 5 6 1019.2 1019.0 0.0
 
Date/Time
EST
Temp
°C
App
Temp
°C
Dew
Point
°C
Rel
Hum
%
Delta-T
°C
Wind Press
QNH
hPa
Press
MSL
hPa
Rain since
9am
mm
Dir  Spd
km/h
Gust
km/h
Spd
kts
Gust
kts
25/11:30pm 20.5 18.2 10.6 53 5.4 S 13 15 7 8 1019.2 1019.0 0.0
25/11:00pm 20.5 18.9 11.7 57 4.9 S 11 17 6 9 1019.5 1019.2 0.0
25/10:30pm 20.1 19.5 14.7 71 3.2 SSE 11 15 6 8 1019.4 1019.1 0.0

Other Formats:

Comma delimited format used in spreadsheet applications
http://www.bom.gov.au/fwo/IDQ60801/IDQ60801.94380.axf

JavaScript Object Notation format (JSON) in row-major order
http://www.bom.gov.au/fwo/IDQ60801/IDQ60801.94380.json